createdAt,value
2023-05-11T00:02:18.336Z,-84
2023-05-11T00:04:44.952Z,-86
2023-05-11T00:07:11.475Z,-85
2023-05-11T00:09:38.834Z,-80
2023-05-11T00:12:05.539Z,-87
2023-05-11T00:14:32.221Z,-85
2023-05-11T00:16:59.073Z,-80
2023-05-11T00:19:25.602Z,-83
2023-05-11T00:21:52.187Z,-82
2023-05-11T00:24:18.674Z,-82
2023-05-11T00:26:45.497Z,-82
2023-05-11T00:29:11.992Z,-87
2023-05-11T00:31:38.752Z,-86
2023-05-11T00:34:05.271Z,-85
2023-05-11T00:36:31.858Z,-86
2023-05-11T00:38:58.379Z,-85
2023-05-11T00:41:24.864Z,-85
2023-05-11T00:43:51.521Z,-83
2023-05-11T00:46:18.210Z,-81
2023-05-11T00:48:44.838Z,-81
2023-05-11T00:51:12.557Z,-82
2023-05-11T00:53:39.108Z,-86
2023-05-11T00:56:05.649Z,-86
2023-05-11T00:58:32.673Z,-83
2023-05-11T01:00:59.239Z,-82
2023-05-11T01:03:26.836Z,-87
2023-05-11T01:05:53.823Z,-87
2023-05-11T01:08:24.718Z,-88
2023-05-11T01:10:54.017Z,-86
2023-05-11T01:13:31.285Z,-87
2023-05-11T01:16:01.824Z,-88
2023-05-11T01:18:28.607Z,-88
2023-05-11T01:21:02.434Z,-88
2023-05-11T01:23:29.020Z,-86
2023-05-11T01:26:11.792Z,-87
2023-05-11T01:29:07.392Z,-87
2023-05-11T01:31:34.655Z,-86
2023-05-11T01:34:05.323Z,-86
2023-05-11T01:36:39.705Z,-86
2023-05-11T01:39:08.951Z,-86
2023-05-11T01:41:37.312Z,-86
2023-05-11T01:44:05.714Z,-87
2023-05-11T01:46:33.762Z,-86
2023-05-11T01:49:01.756Z,-86
2023-05-11T01:51:31.654Z,-86
2023-05-11T01:53:59.397Z,-86
2023-05-11T01:56:27.032Z,-84
2023-05-11T01:58:54.377Z,-85
2023-05-11T02:01:21.015Z,-86
2023-05-11T02:03:48.441Z,-86
2023-05-11T02:06:15.700Z,-88
2023-05-11T02:08:42.244Z,-85
2023-05-11T02:11:10.671Z,-86
2023-05-11T02:13:38.689Z,-86
2023-05-11T02:16:06.576Z,-86
2023-05-11T02:18:33.434Z,-86
2023-05-11T02:21:00.813Z,-85
2023-05-11T02:23:27.944Z,-87
2023-05-11T02:25:54.874Z,-87
2023-05-11T02:28:21.494Z,-86
2023-05-11T02:30:52.510Z,-86
2023-05-11T02:33:27.383Z,-83
2023-05-11T02:35:56.068Z,-84
2023-05-11T02:38:25.133Z,-85
2023-05-11T02:40:55.524Z,-85
2023-05-11T02:43:24.826Z,-84
2023-05-11T02:45:54.198Z,-85
2023-05-11T02:48:26.741Z,-85
2023-05-11T02:50:55.169Z,-86
2023-05-11T02:53:23.636Z,-86
2023-05-11T02:55:51.345Z,-87
2023-05-11T02:58:18.685Z,-87
2023-05-11T03:00:45.975Z,-86
2023-05-11T03:03:13.119Z,-85
2023-05-11T03:05:40.077Z,-88
2023-05-11T03:08:07.006Z,-86
2023-05-11T03:10:34.533Z,-85
2023-05-11T03:13:01.770Z,-86
2023-05-11T03:15:28.595Z,-91
2023-05-11T03:17:55.528Z,-87
2023-05-11T03:20:22.407Z,-86
2023-05-11T03:22:49.975Z,-88
2023-05-11T03:25:17.386Z,-88
2023-05-11T03:27:45.253Z,-88
2023-05-11T03:30:12.823Z,-88
2023-05-11T03:32:39.483Z,-88
2023-05-11T03:35:06.424Z,-89
2023-05-11T03:37:33.450Z,-89
2023-05-11T03:40:01.192Z,-89
2023-05-11T03:42:28.090Z,-89
2023-05-11T03:44:58.949Z,-89
2023-05-11T03:47:29.180Z,-89
2023-05-11T03:49:56.946Z,-89
2023-05-11T03:52:23.678Z,-89
2023-05-11T03:54:50.334Z,-87
2023-05-11T03:57:16.998Z,-88
2023-05-11T03:59:43.613Z,-87
2023-05-11T04:02:10.450Z,-86
2023-05-11T04:04:37.213Z,-87
2023-05-11T04:07:03.993Z,-87
2023-05-11T04:09:31.200Z,-87
2023-05-11T04:11:57.821Z,-86
2023-05-11T04:14:24.425Z,-86
2023-05-11T04:16:51.516Z,-89
2023-05-11T04:19:18.180Z,-88
2023-05-11T04:21:45.007Z,-87
2023-05-11T04:24:11.609Z,-86
2023-05-11T04:26:38.329Z,-87
2023-05-11T04:29:05.270Z,-84
2023-05-11T04:31:33.283Z,-87
2023-05-11T04:34:00.086Z,-86
2023-05-11T04:36:26.730Z,-87
2023-05-11T04:38:53.538Z,-86
2023-05-11T04:41:20.120Z,-85
2023-05-11T04:43:46.703Z,-86
2023-05-11T04:46:13.438Z,-86
2023-05-11T04:48:40.217Z,-87
2023-05-11T04:51:07.106Z,-85
2023-05-11T04:53:33.717Z,-85
2023-05-11T04:56:00.397Z,-88
2023-05-11T04:58:27.050Z,-86
2023-05-11T05:00:54.228Z,-86
2023-05-11T05:03:21.174Z,-87
2023-05-11T05:05:48.052Z,-85
2023-05-11T05:08:14.939Z,-85
2023-05-11T05:10:41.555Z,-87
2023-05-11T05:13:08.206Z,-86
2023-05-11T05:15:34.867Z,-86
2023-05-11T05:18:01.504Z,-85
2023-05-11T05:20:28.224Z,-87
2023-05-11T05:22:55.435Z,-87
2023-05-11T05:25:22.532Z,-88
2023-05-11T05:27:49.195Z,-87
2023-05-11T05:30:16.266Z,-87
2023-05-11T05:32:43.214Z,-87
2023-05-11T05:35:09.959Z,-88
2023-05-11T05:37:37.898Z,-87
2023-05-11T05:40:05.140Z,-85
2023-05-11T05:42:32.098Z,-85
2023-05-11T05:44:58.745Z,-87
2023-05-11T05:47:25.677Z,-85
2023-05-11T05:49:52.361Z,-86
2023-05-11T05:52:18.999Z,-87
2023-05-11T05:54:45.790Z,-87
2023-05-11T05:57:13.767Z,-87
2023-05-11T05:59:42.200Z,-86
2023-05-11T06:02:08.950Z,-87
2023-05-11T06:04:35.587Z,-87
2023-05-11T06:07:02.281Z,-87
2023-05-11T06:09:28.917Z,-87
2023-05-11T06:11:56.138Z,-86
2023-05-11T06:14:23.145Z,-87
2023-05-11T06:16:49.874Z,-86
2023-05-11T06:19:16.728Z,-87
2023-05-11T06:21:45.436Z,-85
2023-05-11T06:24:12.367Z,-85
2023-05-11T06:26:39.656Z,-85
2023-05-11T06:29:06.310Z,-85
2023-05-11T06:31:33.302Z,-85
2023-05-11T06:33:59.946Z,-85
2023-05-11T06:36:26.634Z,-85
2023-05-11T06:38:53.790Z,-85
2023-05-11T06:41:21.999Z,-86
2023-05-11T06:43:48.591Z,-86
2023-05-11T06:46:18.003Z,-87
2023-05-11T06:48:45.179Z,-85
2023-05-11T06:51:12.079Z,-85
2023-05-11T06:53:39.036Z,-88
2023-05-11T06:56:05.847Z,-85
2023-05-11T06:58:32.513Z,-85
2023-05-11T07:00:59.167Z,-85
2023-05-11T07:03:25.757Z,-86
2023-05-11T07:05:52.731Z,-87
2023-05-11T07:08:19.798Z,-87
2023-05-11T07:10:46.446Z,-86
2023-05-11T07:13:13.187Z,-85
2023-05-11T07:15:39.842Z,-87
2023-05-11T07:18:06.534Z,-84
2023-05-11T07:20:34.201Z,-86
2023-05-11T07:23:00.812Z,-85
2023-05-11T07:25:27.379Z,-83
2023-05-11T07:27:54.001Z,-86
2023-05-11T07:30:21.456Z,-83
2023-05-11T07:32:48.876Z,-86
2023-05-11T07:35:15.530Z,-86
2023-05-11T07:37:42.344Z,-86
2023-05-11T07:40:09.150Z,-84
2023-05-11T07:42:35.919Z,-85
2023-05-11T07:45:02.531Z,-85
2023-05-11T07:47:29.222Z,-86
2023-05-11T07:49:55.933Z,-84
2023-05-11T07:52:22.508Z,-85
2023-05-11T07:54:49.237Z,-84
2023-05-11T07:57:15.785Z,-85
2023-05-11T07:59:42.341Z,-85
2023-05-11T08:02:10.963Z,-85
2023-05-11T08:04:39.490Z,-85
2023-05-11T08:07:06.098Z,-84
2023-05-11T08:09:32.752Z,-84
2023-05-11T08:12:01.785Z,-85
2023-05-11T08:14:28.584Z,-84
2023-05-11T08:16:55.091Z,-84
2023-05-11T08:19:25.473Z,-84
2023-05-11T08:21:52.558Z,-84
2023-05-11T08:24:19.047Z,-84
2023-05-11T08:26:45.687Z,-84
2023-05-11T08:29:12.651Z,-84
2023-05-11T08:31:40.428Z,-84
2023-05-11T08:34:18.713Z,-84
2023-05-11T08:36:46.061Z,-84
2023-05-11T08:39:13.246Z,-84
2023-05-11T08:41:39.837Z,-84
2023-05-11T08:44:06.580Z,-86
2023-05-11T08:46:35.697Z,-85
2023-05-11T08:49:03.036Z,-85
2023-05-11T08:51:29.594Z,-87
2023-05-11T08:53:57.958Z,-87
2023-05-11T08:56:25.973Z,-86
2023-05-11T08:58:55.947Z,-86
2023-05-11T09:01:23.537Z,-85
2023-05-11T09:03:50.711Z,-85
2023-05-11T09:06:18.347Z,-85
2023-05-11T09:08:45.950Z,-86
2023-05-11T09:11:12.926Z,-85
2023-05-11T09:13:39.521Z,-86
2023-05-11T09:16:13.859Z,-86
2023-05-11T09:18:51.096Z,-86
2023-05-11T09:21:18.249Z,-86
2023-05-11T09:23:44.826Z,-85
2023-05-11T09:26:15.114Z,-86
2023-05-11T09:31:39.870Z,-86
2023-05-11T09:34:10.332Z,-86
2023-05-11T09:36:37.010Z,-86
2023-05-11T09:39:04.251Z,-85
2023-05-11T09:41:34.838Z,-86
2023-05-11T09:44:10.305Z,-86
2023-05-11T09:46:37.562Z,-86
2023-05-11T09:49:04.728Z,-86
2023-05-11T09:51:32.535Z,-85
2023-05-11T09:53:59.671Z,-86
2023-05-11T09:56:46.515Z,-86
2023-05-11T09:59:14.907Z,-86
2023-05-11T10:01:41.625Z,-86
2023-05-11T10:04:21.986Z,-86
2023-05-11T10:06:55.813Z,-86
2023-05-11T10:09:26.749Z,-86
2023-05-11T10:11:53.717Z,-87
2023-05-11T10:14:20.998Z,-85
2023-05-11T10:16:47.827Z,-86
2023-05-11T10:19:15.214Z,-86
2023-05-11T10:21:41.762Z,-86
2023-05-11T10:24:08.456Z,-86
2023-05-11T10:26:35.471Z,-86
2023-05-11T10:29:02.892Z,-86
2023-05-11T10:31:30.019Z,-86
2023-05-11T10:33:57.484Z,-86
2023-05-11T10:36:24.482Z,-86
2023-05-11T10:38:51.259Z,-85
2023-05-11T10:41:28.334Z,-86
2023-05-11T10:44:13.134Z,-86
2023-05-11T10:46:42.664Z,-86
2023-05-11T10:49:14.608Z,-86
2023-05-11T10:52:16.953Z,-86
2023-05-11T10:54:46.956Z,-87
2023-05-11T10:57:14.068Z,-87
2023-05-11T10:59:55.978Z,-85
2023-05-11T11:02:22.582Z,-85
2023-05-11T11:04:50.515Z,-85
2023-05-11T11:07:18.741Z,-86
2023-05-11T11:09:57.261Z,-86
2023-05-11T11:12:24.880Z,-87
2023-05-11T11:14:59.346Z,-87
2023-05-11T11:17:31.447Z,-87
2023-05-11T11:19:58.939Z,-88
2023-05-11T11:22:34.844Z,-88
2023-05-11T11:25:06.010Z,-87
2023-05-11T11:27:41.632Z,-87
2023-05-11T11:30:28.996Z,-87
2023-05-11T11:33:16.193Z,-86
2023-05-11T11:35:43.091Z,-87
2023-05-11T11:38:13.953Z,-87
2023-05-11T11:40:51.251Z,-86
2023-05-11T11:43:20.082Z,-86
2023-05-11T11:45:57.027Z,-87
2023-05-11T11:48:37.086Z,-87
2023-05-11T11:51:06.777Z,-87
2023-05-11T11:53:36.551Z,-87
2023-05-11T11:56:03.555Z,-87
2023-05-11T11:58:45.477Z,-87
2023-05-11T12:01:16.074Z,-87
2023-05-11T12:03:43.610Z,-87
2023-05-11T12:06:10.684Z,-85
2023-05-11T12:08:37.969Z,-86
2023-05-11T12:11:05.206Z,-85
2023-05-11T12:13:32.106Z,-86
2023-05-11T12:16:12.595Z,-86
2023-05-11T12:18:39.800Z,-85
2023-05-11T12:21:06.494Z,-87
2023-05-11T12:23:33.062Z,-88
2023-05-11T12:26:06.898Z,-88
2023-05-11T12:28:33.765Z,-84
2023-05-11T12:31:00.825Z,-86
2023-05-11T12:33:27.590Z,-85
2023-05-11T12:35:55.667Z,-85
2023-05-11T12:38:22.497Z,-85
2023-05-11T12:40:50.213Z,-87
2023-05-11T12:43:20.277Z,-86
2023-05-11T12:45:46.960Z,-86
2023-05-11T12:48:14.296Z,-85
2023-05-11T12:50:43.906Z,-88
2023-05-11T12:53:15.210Z,-87
2023-05-11T12:55:42.106Z,-87
2023-05-11T12:58:12.339Z,-86
2023-05-11T13:00:51.042Z,-86
2023-05-11T13:03:24.188Z,-88
2023-05-11T13:05:51.015Z,-87
2023-05-11T13:08:19.418Z,-88
2023-05-11T13:10:47.482Z,-88
2023-05-11T13:13:27.626Z,-88
2023-05-11T13:15:54.407Z,-88
2023-05-11T13:18:21.212Z,-86
2023-05-11T13:20:47.798Z,-87
2023-05-11T13:23:15.623Z,-86
2023-05-11T13:25:45.257Z,-87
2023-05-11T13:28:12.147Z,-87
2023-05-11T13:30:38.809Z,-87
2023-05-11T13:33:05.430Z,-86
2023-05-11T13:35:32.473Z,-86
2023-05-11T13:37:59.001Z,-86
2023-05-11T13:40:25.604Z,-87
2023-05-11T13:42:52.177Z,-87
2023-05-11T13:45:18.954Z,-84
2023-05-11T13:47:46.646Z,-85
2023-05-11T13:50:13.902Z,-86
2023-05-11T13:52:40.647Z,-84
2023-05-11T13:55:07.433Z,-86
2023-05-11T13:57:34.399Z,-85
2023-05-11T14:00:01.089Z,-88
2023-05-11T14:02:27.827Z,-86
2023-05-11T14:04:54.661Z,-87
2023-05-11T14:07:23.877Z,-86
2023-05-11T14:09:52.668Z,-86
2023-05-11T14:12:19.294Z,-85
2023-05-11T14:14:45.920Z,-86
2023-05-11T14:17:14.652Z,-86
2023-05-11T14:19:41.239Z,-86
2023-05-11T14:22:07.809Z,-86
2023-05-11T14:24:34.324Z,-85
2023-05-11T14:27:00.983Z,-86
2023-05-11T14:29:27.548Z,-85
2023-05-11T14:31:54.123Z,-85
2023-05-11T14:34:20.638Z,-87
2023-05-11T14:36:47.188Z,-87
2023-05-11T14:39:13.678Z,-87
2023-05-11T14:41:40.237Z,-87
2023-05-11T14:44:06.980Z,-86
2023-05-11T14:46:33.553Z,-86
2023-05-11T14:49:00.161Z,-87
2023-05-11T14:51:27.087Z,-86
2023-05-11T14:53:53.677Z,-85
2023-05-11T14:56:20.607Z,-88
2023-05-11T14:58:47.549Z,-86
2023-05-11T15:01:14.110Z,-85
2023-05-11T15:03:41.115Z,-89
2023-05-11T15:06:07.721Z,-86
2023-05-11T15:08:36.703Z,-85
2023-05-11T15:11:03.678Z,-85
2023-05-11T15:13:30.808Z,-86
2023-05-11T15:15:57.421Z,-87
2023-05-11T15:18:23.979Z,-86
2023-05-11T15:20:50.550Z,-87
2023-05-11T15:23:17.499Z,-87
2023-05-11T15:25:45.140Z,-86
2023-05-11T15:28:12.193Z,-87
2023-05-11T15:30:38.853Z,-85
2023-05-11T15:33:05.619Z,-86
2023-05-11T15:35:34.491Z,-87
2023-05-11T15:38:00.981Z,-87
2023-05-11T15:40:28.483Z,-86
2023-05-11T15:42:57.853Z,-86
2023-05-11T15:45:25.476Z,-86
2023-05-11T15:47:52.326Z,-86
2023-05-11T15:50:19.104Z,-86
2023-05-11T15:52:45.863Z,-86
2023-05-11T15:55:12.336Z,-87
2023-05-11T15:57:39.057Z,-87
2023-05-11T16:00:06.078Z,-87
2023-05-11T16:02:32.686Z,-86
2023-05-11T16:04:59.279Z,-87
2023-05-11T16:07:28.706Z,-86
2023-05-11T16:09:55.739Z,-85
2023-05-11T16:12:22.252Z,-85
2023-05-11T16:14:48.811Z,-86
2023-05-11T16:17:15.562Z,-86
2023-05-11T16:19:42.133Z,-86
2023-05-11T16:22:08.748Z,-85
2023-05-11T16:24:35.254Z,-83
2023-05-11T16:27:02.289Z,-86
2023-05-11T16:29:28.810Z,-84
2023-05-11T16:31:56.644Z,-85
2023-05-11T16:34:23.383Z,-88
2023-05-11T16:36:49.953Z,-87
2023-05-11T16:39:16.587Z,-86
2023-05-11T16:41:43.109Z,-88
2023-05-11T16:44:09.623Z,-89
2023-05-11T16:46:36.193Z,-91
2023-05-11T16:49:02.910Z,-90
2023-05-11T16:51:29.623Z,-88
2023-05-11T16:53:57.481Z,-88
2023-05-11T16:56:24.107Z,-88
2023-05-11T16:58:50.659Z,-90
2023-05-11T17:01:17.352Z,-89
2023-05-11T17:03:44.117Z,-88
2023-05-11T17:06:15.920Z,-89
2023-05-11T17:08:42.930Z,-91
2023-05-11T17:11:09.912Z,-91
2023-05-11T17:13:36.871Z,-88
2023-05-11T17:16:03.846Z,-88
2023-05-11T17:18:31.014Z,-89
2023-05-11T17:20:57.999Z,-88
2023-05-11T17:23:24.976Z,-89
2023-05-11T17:25:52.000Z,-89
2023-05-11T17:28:18.630Z,-89
2023-05-11T17:30:48.830Z,-89
2023-05-11T17:33:16.511Z,-87
2023-05-11T17:35:43.391Z,-87
2023-05-11T17:38:10.091Z,-87
2023-05-11T17:40:36.665Z,-86
2023-05-11T17:43:03.238Z,-87
2023-05-11T17:45:30.191Z,-87
2023-05-11T17:47:56.830Z,-87
2023-05-11T17:50:23.722Z,-87
2023-05-11T17:52:51.320Z,-87
2023-05-11T17:55:18.123Z,-87
2023-05-11T17:57:44.888Z,-87
2023-05-11T18:00:11.907Z,-87
2023-05-11T18:02:38.525Z,-90
2023-05-11T18:05:05.799Z,-87
2023-05-11T18:07:32.398Z,-87
2023-05-11T18:09:58.899Z,-86
2023-05-11T18:12:26.458Z,-86
2023-05-11T18:14:53.058Z,-86
2023-05-11T18:17:19.609Z,-86
2023-05-11T18:19:46.188Z,-86
2023-05-11T18:22:13.294Z,-85
2023-05-11T18:24:40.003Z,-87
2023-05-11T18:27:06.839Z,-87
2023-05-11T18:29:33.479Z,-88
2023-05-11T18:32:00.087Z,-88
2023-05-11T18:34:27.871Z,-88
2023-05-11T18:36:54.388Z,-88
2023-05-11T18:39:21.314Z,-88
2023-05-11T18:41:48.124Z,-88
2023-05-11T18:44:15.295Z,-89
2023-05-11T18:46:41.905Z,-89
2023-05-11T18:49:08.482Z,-89
2023-05-11T18:51:35.448Z,-89
2023-05-11T18:54:02.139Z,-88
2023-05-11T18:56:28.700Z,-89
2023-05-11T18:58:55.246Z,-89
2023-05-11T19:01:25.860Z,-88
2023-05-11T19:03:56.912Z,-88
2023-05-11T19:06:23.441Z,-87
2023-05-11T19:08:55.202Z,-87
2023-05-11T19:11:22.990Z,-86
2023-05-11T19:13:50.619Z,-87
2023-05-11T19:16:17.329Z,-87
2023-05-11T19:18:43.967Z,-87
2023-05-11T19:21:10.796Z,-87
2023-05-11T19:23:37.332Z,-87
2023-05-11T19:26:03.848Z,-88
2023-05-11T19:28:30.913Z,-87
2023-05-11T19:31:04.921Z,-86
2023-05-11T19:33:31.555Z,-86
2023-05-11T19:35:58.033Z,-86
2023-05-11T19:38:24.651Z,-87
2023-05-11T19:40:51.639Z,-86
2023-05-11T19:43:18.486Z,-86
2023-05-11T19:45:45.655Z,-86
2023-05-11T19:48:12.867Z,-87
2023-05-11T19:50:40.321Z,-87
2023-05-11T19:53:07.171Z,-86
2023-05-11T19:55:33.998Z,-87
2023-05-11T19:58:00.704Z,-87
2023-05-11T20:00:27.508Z,-86
2023-05-11T20:02:55.489Z,-86
2023-05-11T20:05:22.366Z,-85
2023-05-11T20:07:48.859Z,-87
2023-05-11T20:10:15.659Z,-87
2023-05-11T20:12:42.162Z,-87
2023-05-11T20:15:08.985Z,-84
2023-05-11T20:17:36.228Z,-86
2023-05-11T20:20:03.193Z,-87
2023-05-11T20:22:31.269Z,-87
2023-05-11T20:24:57.896Z,-87
2023-05-11T20:27:24.782Z,-87
2023-05-11T20:29:51.979Z,-86
2023-05-11T20:32:18.731Z,-87
2023-05-11T20:34:45.305Z,-87
2023-05-11T20:37:12.203Z,-86
2023-05-11T20:39:38.958Z,-86
2023-05-11T20:42:05.856Z,-87
2023-05-11T20:44:32.433Z,-85
2023-05-11T20:46:58.986Z,-87
2023-05-11T20:49:37.491Z,-87
2023-05-11T20:52:06.040Z,-86
2023-05-11T20:54:34.997Z,-84
2023-05-11T20:57:04.967Z,-84
2023-05-11T21:02:02.304Z,-83
2023-05-11T21:04:31.388Z,-88
2023-05-11T21:06:58.550Z,-86
2023-05-11T21:09:25.663Z,-86
2023-05-11T21:11:52.424Z,-86
2023-05-11T21:14:19.040Z,-86
2023-05-11T21:16:45.803Z,-86
2023-05-11T21:19:12.453Z,-86
2023-05-11T21:21:39.008Z,-85
2023-05-11T21:24:06.336Z,-86
2023-05-11T21:26:32.934Z,-84
2023-05-11T21:28:59.558Z,-87
2023-05-11T21:31:26.199Z,-85
2023-05-11T21:33:53.108Z,-86
2023-05-11T21:36:19.741Z,-86
2023-05-11T21:38:48.450Z,-88
2023-05-11T21:41:15.010Z,-88
2023-05-11T21:43:41.574Z,-87
2023-05-11T21:46:08.232Z,-87
2023-05-11T21:48:34.810Z,-88
2023-05-11T21:51:01.364Z,-87
2023-05-11T21:53:28.162Z,-87
2023-05-11T21:55:55.229Z,-87
2023-05-11T21:58:22.072Z,-87
2023-05-11T22:00:48.646Z,-87
2023-05-11T22:03:15.521Z,-88
2023-05-11T22:05:42.394Z,-87
2023-05-11T22:08:14.895Z,-88
2023-05-11T22:10:43.184Z,-88
2023-05-11T22:13:09.762Z,-89
2023-05-11T22:15:36.504Z,-88
2023-05-11T22:18:03.782Z,-87
2023-05-11T22:20:32.001Z,-88
2023-05-11T22:22:59.434Z,-88
2023-05-11T22:25:26.314Z,-87
2023-05-11T22:27:54.199Z,-88
2023-05-11T22:30:21.111Z,-89
2023-05-11T22:32:48.228Z,-88
2023-05-11T22:35:14.815Z,-89
2023-05-11T22:37:41.368Z,-89
2023-05-11T22:40:08.185Z,-88
2023-05-11T22:42:34.957Z,-86
2023-05-11T22:45:01.740Z,-86
2023-05-11T22:47:28.318Z,-86
2023-05-11T22:49:54.998Z,-86
2023-05-11T22:52:21.963Z,-86
2023-05-11T22:54:52.881Z,-87
2023-05-11T22:57:19.368Z,-86
2023-05-11T22:59:47.080Z,-86
2023-05-11T23:02:13.665Z,-86
2023-05-11T23:04:41.344Z,-86
2023-05-11T23:07:08.086Z,-85
2023-05-11T23:09:35.054Z,-86
2023-05-11T23:12:01.699Z,-86
2023-05-11T23:14:28.992Z,-86
2023-05-11T23:16:56.875Z,-85
2023-05-11T23:19:25.225Z,-86
2023-05-11T23:21:51.800Z,-86
2023-05-11T23:24:18.380Z,-86
2023-05-11T23:26:44.983Z,-86
2023-05-11T23:29:11.615Z,-86
2023-05-11T23:31:38.586Z,-86
2023-05-11T23:34:05.174Z,-86
2023-05-11T23:36:32.375Z,-86
2023-05-11T23:38:58.928Z,-86
2023-05-11T23:41:25.501Z,-86
2023-05-11T23:43:52.012Z,-86
2023-05-11T23:46:18.633Z,-86
2023-05-11T23:48:46.349Z,-86
2023-05-11T23:51:13.174Z,-85
2023-05-11T23:53:40.199Z,-86
2023-05-11T23:56:06.953Z,-86
2023-05-11T23:58:33.504Z,-85
